sensor_id;sensor_type;location;lat;lon;timestamp;temperature;humidity
7972;DHT22;4031;49.758;6.120;2023-11-21T00:00:19;8.20;99.90
7972;DHT22;4031;49.758;6.120;2023-11-21T00:02:45;8.20;99.90
7972;DHT22;4031;49.758;6.120;2023-11-21T00:05:12;8.10;99.90
7972;DHT22;4031;49.758;6.120;2023-11-21T00:07:42;8.10;99.90
7972;DHT22;4031;49.758;6.120;2023-11-21T00:10:08;8.10;99.90
7972;DHT22;4031;49.758;6.120;2023-11-21T00:12:36;8.10;99.90
7972;DHT22;4031;49.758;6.120;2023-11-21T00:15:02;8.10;99.90
7972;DHT22;4031;49.758;6.120;2023-11-21T00:17:28;8.10;99.90
7972;DHT22;4031;49.758;6.120;2023-11-21T00:19:53;8.10;99.90
7972;DHT22;4031;49.758;6.120;2023-11-21T00:22:19;8.10;99.90
7972;DHT22;4031;49.758;6.120;2023-11-21T00:24:45;8.10;99.90
7972;DHT22;4031;49.758;6.120;2023-11-21T00:27:12;8.00;99.90
7972;DHT22;4031;49.758;6.120;2023-11-21T00:29:37;8.00;99.90
7972;DHT22;4031;49.758;6.120;2023-11-21T00:32:04;8.00;99.90
7972;DHT22;4031;49.758;6.120;2023-11-21T00:34:31;8.00;99.90
7972;DHT22;4031;49.758;6.120;2023-11-21T00:36:57;8.00;99.90
7972;DHT22;4031;49.758;6.120;2023-11-21T00:39:23;8.00;99.90
7972;DHT22;4031;49.758;6.120;2023-11-21T00:41:49;7.90;99.90
7972;DHT22;4031;49.758;6.120;2023-11-21T00:44:16;7.90;99.90
7972;DHT22;4031;49.758;6.120;2023-11-21T00:46:41;7.90;99.90
7972;DHT22;4031;49.758;6.120;2023-11-21T00:49:07;7.90;99.90
7972;DHT22;4031;49.758;6.120;2023-11-21T00:51:33;7.90;99.90
7972;DHT22;4031;49.758;6.120;2023-11-21T00:53:59;7.90;99.90
7972;DHT22;4031;49.758;6.120;2023-11-21T00:56:25;7.90;99.90
7972;DHT22;4031;49.758;6.120;2023-11-21T00:58:51;7.90;99.90
7972;DHT22;4031;49.758;6.120;2023-11-21T01:01:18;7.90;99.90
7972;DHT22;4031;49.758;6.120;2023-11-21T01:03:46;7.90;99.90
7972;DHT22;4031;49.758;6.120;2023-11-21T01:06:12;7.90;99.90
7972;DHT22;4031;49.758;6.120;2023-11-21T01:08:38;7.90;99.90
7972;DHT22;4031;49.758;6.120;2023-11-21T01:11:04;7.90;99.90
7972;DHT22;4031;49.758;6.120;2023-11-21T01:13:30;7.90;99.90
7972;DHT22;4031;49.758;6.120;2023-11-21T01:15:56;7.90;99.90
7972;DHT22;4031;49.758;6.120;2023-11-21T01:18:22;7.90;99.90
7972;DHT22;4031;49.758;6.120;2023-11-21T01:20:51;7.90;99.90
7972;DHT22;4031;49.758;6.120;2023-11-21T01:23:18;7.90;99.90
7972;DHT22;4031;49.758;6.120;2023-11-21T01:25:44;7.90;99.90
7972;DHT22;4031;49.758;6.120;2023-11-21T01:28:10;7.90;99.90
7972;DHT22;4031;49.758;6.120;2023-11-21T01:30:36;7.90;99.90
7972;DHT22;4031;49.758;6.120;2023-11-21T01:33:02;7.80;99.90
7972;DHT22;4031;49.758;6.120;2023-11-21T01:35:28;7.90;99.90
7972;DHT22;4031;49.758;6.120;2023-11-21T01:37:54;7.90;99.90
7972;DHT22;4031;49.758;6.120;2023-11-21T01:40:20;7.80;99.90
7972;DHT22;4031;49.758;6.120;2023-11-21T01:42:46;7.80;99.90
7972;DHT22;4031;49.758;6.120;2023-11-21T01:45:12;7.80;99.90
7972;DHT22;4031;49.758;6.120;2023-11-21T01:47:39;7.80;99.90
7972;DHT22;4031;49.758;6.120;2023-11-21T01:50:07;7.80;99.90
7972;DHT22;4031;49.758;6.120;2023-11-21T01:52:35;7.80;99.90
7972;DHT22;4031;49.758;6.120;2023-11-21T01:55:01;7.80;99.90
7972;DHT22;4031;49.758;6.120;2023-11-21T01:57:28;7.70;99.90
7972;DHT22;4031;49.758;6.120;2023-11-21T01:59:55;7.70;99.90
7972;DHT22;4031;49.758;6.120;2023-11-21T02:02:21;7.70;99.90
7972;DHT22;4031;49.758;6.120;2023-11-21T02:04:47;7.70;99.90
7972;DHT22;4031;49.758;6.120;2023-11-21T02:07:12;7.70;99.90
7972;DHT22;4031;49.758;6.120;2023-11-21T02:09:38;7.70;99.90
7972;DHT22;4031;49.758;6.120;2023-11-21T02:12:07;7.70;99.90
7972;DHT22;4031;49.758;6.120;2023-11-21T02:14:36;7.70;99.90
7972;DHT22;4031;49.758;6.120;2023-11-21T02:17:02;7.70;99.90
7972;DHT22;4031;49.758;6.120;2023-11-21T02:19:29;7.70;99.90
7972;DHT22;4031;49.758;6.120;2023-11-21T02:21:57;7.70;99.90
7972;DHT22;4031;49.758;6.120;2023-11-21T02:24:32;7.70;99.90
7972;DHT22;4031;49.758;6.120;2023-11-21T02:26:58;7.70;99.90
7972;DHT22;4031;49.758;6.120;2023-11-21T02:29:23;7.70;99.90
7972;DHT22;4031;49.758;6.120;2023-11-21T02:31:55;7.70;99.90
7972;DHT22;4031;49.758;6.120;2023-11-21T02:34:22;7.70;99.90
7972;DHT22;4031;49.758;6.120;2023-11-21T02:36:48;7.70;99.90
7972;DHT22;4031;49.758;6.120;2023-11-21T02:39:17;7.70;99.90
7972;DHT22;4031;49.758;6.120;2023-11-21T02:41:44;7.70;99.90
7972;DHT22;4031;49.758;6.120;2023-11-21T02:44:10;7.70;99.90
7972;DHT22;4031;49.758;6.120;2023-11-21T02:46:36;7.70;99.90
7972;DHT22;4031;49.758;6.120;2023-11-21T02:49:05;7.70;99.90
7972;DHT22;4031;49.758;6.120;2023-11-21T02:51:35;7.70;99.90
7972;DHT22;4031;49.758;6.120;2023-11-21T02:54:01;7.70;99.90
7972;DHT22;4031;49.758;6.120;2023-11-21T02:56:30;7.70;99.90
7972;DHT22;4031;49.758;6.120;2023-11-21T02:58:57;7.60;99.90
7972;DHT22;4031;49.758;6.120;2023-11-21T03:01:23;7.60;99.90
7972;DHT22;4031;49.758;6.120;2023-11-21T03:03:52;7.60;99.90
7972;DHT22;4031;49.758;6.120;2023-11-21T03:06:19;7.60;99.90
7972;DHT22;4031;49.758;6.120;2023-11-21T03:08:45;7.60;99.90
7972;DHT22;4031;49.758;6.120;2023-11-21T03:11:11;7.60;99.90
7972;DHT22;4031;49.758;6.120;2023-11-21T03:13:39;7.50;99.90
7972;DHT22;4031;49.758;6.120;2023-11-21T03:16:10;7.60;99.90
7972;DHT22;4031;49.758;6.120;2023-11-21T03:18:36;7.60;99.90
7972;DHT22;4031;49.758;6.120;2023-11-21T03:21:04;7.60;99.90
7972;DHT22;4031;49.758;6.120;2023-11-21T03:23:30;7.50;99.90
7972;DHT22;4031;49.758;6.120;2023-11-21T03:25:56;7.50;99.90
7972;DHT22;4031;49.758;6.120;2023-11-21T03:28:23;7.50;99.90
7972;DHT22;4031;49.758;6.120;2023-11-21T03:30:49;7.50;99.90
7972;DHT22;4031;49.758;6.120;2023-11-21T03:33:14;7.50;99.90
7972;DHT22;4031;49.758;6.120;2023-11-21T03:35:40;7.50;99.90
7972;DHT22;4031;49.758;6.120;2023-11-21T03:38:07;7.50;99.90
7972;DHT22;4031;49.758;6.120;2023-11-21T03:40:33;7.50;99.90
7972;DHT22;4031;49.758;6.120;2023-11-21T03:42:59;7.40;99.90
7972;DHT22;4031;49.758;6.120;2023-11-21T03:45:25;7.50;99.90
7972;DHT22;4031;49.758;6.120;2023-11-21T03:47:51;7.40;99.90
7972;DHT22;4031;49.758;6.120;2023-11-21T03:50:16;7.40;99.90
7972;DHT22;4031;49.758;6.120;2023-11-21T03:52:42;7.40;99.90
7972;DHT22;4031;49.758;6.120;2023-11-21T03:55:08;7.40;99.90
7972;DHT22;4031;49.758;6.120;2023-11-21T03:57:35;7.30;99.90
7972;DHT22;4031;49.758;6.120;2023-11-21T04:00:01;7.30;99.90
7972;DHT22;4031;49.758;6.120;2023-11-21T04:02:29;7.30;99.90
7972;DHT22;4031;49.758;6.120;2023-11-21T04:04:57;7.30;99.90
7972;DHT22;4031;49.758;6.120;2023-11-21T04:07:23;7.30;99.90
7972;DHT22;4031;49.758;6.120;2023-11-21T04:09:49;7.30;99.90
7972;DHT22;4031;49.758;6.120;2023-11-21T04:12:14;7.30;99.90
7972;DHT22;4031;49.758;6.120;2023-11-21T04:14:40;7.30;99.90
7972;DHT22;4031;49.758;6.120;2023-11-21T04:17:06;7.20;99.90
7972;DHT22;4031;49.758;6.120;2023-11-21T04:19:32;7.20;99.90
7972;DHT22;4031;49.758;6.120;2023-11-21T04:21:57;7.20;99.90
7972;DHT22;4031;49.758;6.120;2023-11-21T04:24:23;7.20;99.90
7972;DHT22;4031;49.758;6.120;2023-11-21T04:26:49;7.20;99.90
7972;DHT22;4031;49.758;6.120;2023-11-21T04:29:14;7.20;99.90
7972;DHT22;4031;49.758;6.120;2023-11-21T04:31:40;7.20;99.90
7972;DHT22;4031;49.758;6.120;2023-11-21T04:34:06;7.20;99.90
7972;DHT22;4031;49.758;6.120;2023-11-21T04:36:33;7.20;99.90
7972;DHT22;4031;49.758;6.120;2023-11-21T04:39:00;7.10;99.90
7972;DHT22;4031;49.758;6.120;2023-11-21T04:41:26;7.10;99.90
7972;DHT22;4031;49.758;6.120;2023-11-21T04:43:52;7.10;99.90
7972;DHT22;4031;49.758;6.120;2023-11-21T04:46:17;7.10;99.90
7972;DHT22;4031;49.758;6.120;2023-11-21T04:48:43;7.10;99.90
7972;DHT22;4031;49.758;6.120;2023-11-21T04:51:09;7.10;99.90
7972;DHT22;4031;49.758;6.120;2023-11-21T04:53:36;7.10;99.90
7972;DHT22;4031;49.758;6.120;2023-11-21T04:56:02;7.10;99.90
7972;DHT22;4031;49.758;6.120;2023-11-21T04:58:28;7.10;99.90
7972;DHT22;4031;49.758;6.120;2023-11-21T05:00:54;7.10;99.90
7972;DHT22;4031;49.758;6.120;2023-11-21T05:03:20;7.10;99.90
7972;DHT22;4031;49.758;6.120;2023-11-21T05:05:46;7.10;99.90
7972;DHT22;4031;49.758;6.120;2023-11-21T05:08:11;7.10;99.90
7972;DHT22;4031;49.758;6.120;2023-11-21T05:10:37;7.10;99.90
7972;DHT22;4031;49.758;6.120;2023-11-21T05:13:04;7.10;99.90
7972;DHT22;4031;49.758;6.120;2023-11-21T05:15:35;7.00;99.90
7972;DHT22;4031;49.758;6.120;2023-11-21T05:18:01;7.10;99.90
7972;DHT22;4031;49.758;6.120;2023-11-21T05:20:27;7.00;99.90
7972;DHT22;4031;49.758;6.120;2023-11-21T05:22:53;7.10;99.90
7972;DHT22;4031;49.758;6.120;2023-11-21T05:25:19;7.00;99.90
7972;DHT22;4031;49.758;6.120;2023-11-21T05:27:48;7.00;99.90
7972;DHT22;4031;49.758;6.120;2023-11-21T05:30:14;7.00;99.90
7972;DHT22;4031;49.758;6.120;2023-11-21T05:32:40;7.00;99.90
7972;DHT22;4031;49.758;6.120;2023-11-21T05:35:08;7.00;99.90
7972;DHT22;4031;49.758;6.120;2023-11-21T05:37:38;7.00;99.90
7972;DHT22;4031;49.758;6.120;2023-11-21T05:40:06;7.00;99.90
7972;DHT22;4031;49.758;6.120;2023-11-21T05:42:33;7.00;99.90
7972;DHT22;4031;49.758;6.120;2023-11-21T05:44:59;7.00;99.90
7972;DHT22;4031;49.758;6.120;2023-11-21T05:47:38;7.00;99.90
7972;DHT22;4031;49.758;6.120;2023-11-21T05:50:06;6.90;99.90
7972;DHT22;4031;49.758;6.120;2023-11-21T05:52:37;6.90;99.90
7972;DHT22;4031;49.758;6.120;2023-11-21T05:55:05;6.90;99.90
7972;DHT22;4031;49.758;6.120;2023-11-21T05:57:34;6.90;99.90
7972;DHT22;4031;49.758;6.120;2023-11-21T06:00:05;7.00;99.90
7972;DHT22;4031;49.758;6.120;2023-11-21T06:02:43;6.90;99.90
7972;DHT22;4031;49.758;6.120;2023-11-21T06:05:10;6.90;99.90
7972;DHT22;4031;49.758;6.120;2023-11-21T06:07:37;6.90;99.90
7972;DHT22;4031;49.758;6.120;2023-11-21T06:10:04;6.90;99.90
7972;DHT22;4031;49.758;6.120;2023-11-21T06:12:37;6.90;99.90
7972;DHT22;4031;49.758;6.120;2023-11-21T06:15:03;6.90;99.90
7972;DHT22;4031;49.758;6.120;2023-11-21T06:17:31;6.80;99.90
7972;DHT22;4031;49.758;6.120;2023-11-21T06:19:57;6.90;99.90
7972;DHT22;4031;49.758;6.120;2023-11-21T06:22:23;6.90;99.90
7972;DHT22;4031;49.758;6.120;2023-11-21T06:24:48;6.90;99.90
7972;DHT22;4031;49.758;6.120;2023-11-21T06:27:14;6.90;99.90
7972;DHT22;4031;49.758;6.120;2023-11-21T06:29:41;6.80;99.90
7972;DHT22;4031;49.758;6.120;2023-11-21T06:32:07;6.80;99.90
7972;DHT22;4031;49.758;6.120;2023-11-21T06:34:34;6.80;99.90
7972;DHT22;4031;49.758;6.120;2023-11-21T06:36:59;6.80;99.90
7972;DHT22;4031;49.758;6.120;2023-11-21T06:39:25;6.80;99.90
7972;DHT22;4031;49.758;6.120;2023-11-21T06:41:51;6.80;99.90
7972;DHT22;4031;49.758;6.120;2023-11-21T06:44:16;6.80;99.90
7972;DHT22;4031;49.758;6.120;2023-11-21T06:46:42;6.80;99.90
7972;DHT22;4031;49.758;6.120;2023-11-21T06:49:08;6.80;99.90
7972;DHT22;4031;49.758;6.120;2023-11-21T06:51:34;6.80;99.90
7972;DHT22;4031;49.758;6.120;2023-11-21T06:54:00;6.80;99.90
7972;DHT22;4031;49.758;6.120;2023-11-21T06:56:26;6.80;99.90
7972;DHT22;4031;49.758;6.120;2023-11-21T06:58:51;6.80;99.90
7972;DHT22;4031;49.758;6.120;2023-11-21T07:01:20;6.80;99.90
7972;DHT22;4031;49.758;6.120;2023-11-21T07:03:45;6.80;99.90
7972;DHT22;4031;49.758;6.120;2023-11-21T07:06:11;6.80;99.90
7972;DHT22;4031;49.758;6.120;2023-11-21T07:08:37;6.80;99.90
7972;DHT22;4031;49.758;6.120;2023-11-21T07:11:04;6.80;99.90
7972;DHT22;4031;49.758;6.120;2023-11-21T07:13:30;6.80;99.90
7972;DHT22;4031;49.758;6.120;2023-11-21T07:15:57;6.80;99.90
7972;DHT22;4031;49.758;6.120;2023-11-21T07:18:24;6.80;99.90
7972;DHT22;4031;49.758;6.120;2023-11-21T07:20:49;6.80;99.90
7972;DHT22;4031;49.758;6.120;2023-11-21T07:23:15;6.80;99.90
7972;DHT22;4031;49.758;6.120;2023-11-21T07:25:41;6.80;99.90
7972;DHT22;4031;49.758;6.120;2023-11-21T07:28:08;6.90;99.90
7972;DHT22;4031;49.758;6.120;2023-11-21T07:30:34;6.90;99.90
7972;DHT22;4031;49.758;6.120;2023-11-21T07:33:00;6.90;99.90
7972;DHT22;4031;49.758;6.120;2023-11-21T07:35:26;7.00;99.90
7972;DHT22;4031;49.758;6.120;2023-11-21T07:37:52;7.00;99.90
7972;DHT22;4031;49.758;6.120;2023-11-21T07:40:17;7.00;99.90
7972;DHT22;4031;49.758;6.120;2023-11-21T07:42:43;7.00;99.90
7972;DHT22;4031;49.758;6.120;2023-11-21T07:45:09;7.00;99.90
7972;DHT22;4031;49.758;6.120;2023-11-21T07:47:35;7.10;99.90
7972;DHT22;4031;49.758;6.120;2023-11-21T07:50:03;7.10;99.90
7972;DHT22;4031;49.758;6.120;2023-11-21T07:52:29;7.20;99.90
7972;DHT22;4031;49.758;6.120;2023-11-21T07:54:54;7.20;99.90
7972;DHT22;4031;49.758;6.120;2023-11-21T07:57:20;7.20;99.90
7972;DHT22;4031;49.758;6.120;2023-11-21T07:59:46;7.20;99.90
7972;DHT22;4031;49.758;6.120;2023-11-21T08:02:11;7.30;99.90
7972;DHT22;4031;49.758;6.120;2023-11-21T08:04:37;7.30;99.90
7972;DHT22;4031;49.758;6.120;2023-11-21T08:07:03;7.40;99.90
7972;DHT22;4031;49.758;6.120;2023-11-21T08:09:29;7.40;99.90
7972;DHT22;4031;49.758;6.120;2023-11-21T08:11:55;7.40;99.90
7972;DHT22;4031;49.758;6.120;2023-11-21T08:14:22;7.50;99.90
7972;DHT22;4031;49.758;6.120;2023-11-21T08:16:50;7.50;99.90
7972;DHT22;4031;49.758;6.120;2023-11-21T08:19:16;7.50;99.90
7972;DHT22;4031;49.758;6.120;2023-11-21T08:21:43;7.60;99.90
7972;DHT22;4031;49.758;6.120;2023-11-21T08:24:10;7.60;99.90
7972;DHT22;4031;49.758;6.120;2023-11-21T08:26:37;7.70;99.90
7972;DHT22;4031;49.758;6.120;2023-11-21T08:29:03;7.70;99.90
7972;DHT22;4031;49.758;6.120;2023-11-21T08:31:29;7.80;99.90
7972;DHT22;4031;49.758;6.120;2023-11-21T08:33:55;7.80;99.90
7972;DHT22;4031;49.758;6.120;2023-11-21T08:36:25;7.80;99.90
7972;DHT22;4031;49.758;6.120;2023-11-21T08:38:51;7.90;99.90
7972;DHT22;4031;49.758;6.120;2023-11-21T08:41:17;8.00;99.90
7972;DHT22;4031;49.758;6.120;2023-11-21T08:43:47;8.00;99.90
7972;DHT22;4031;49.758;6.120;2023-11-21T08:46:14;8.10;99.90
7972;DHT22;4031;49.758;6.120;2023-11-21T08:48:41;8.10;99.90
7972;DHT22;4031;49.758;6.120;2023-11-21T08:51:09;8.10;99.90
7972;DHT22;4031;49.758;6.120;2023-11-21T08:53:36;8.20;99.90
7972;DHT22;4031;49.758;6.120;2023-11-21T08:56:03;8.30;99.90
7972;DHT22;4031;49.758;6.120;2023-11-21T08:58:30;8.40;99.90
7972;DHT22;4031;49.758;6.120;2023-11-21T09:00:57;8.50;99.90
7972;DHT22;4031;49.758;6.120;2023-11-21T09:03:23;8.50;99.90
7972;DHT22;4031;49.758;6.120;2023-11-21T09:05:49;8.60;99.90
7972;DHT22;4031;49.758;6.120;2023-11-21T09:08:14;8.60;99.90
7972;DHT22;4031;49.758;6.120;2023-11-21T09:10:40;8.70;99.90
7972;DHT22;4031;49.758;6.120;2023-11-21T09:13:08;8.80;99.90
7972;DHT22;4031;49.758;6.120;2023-11-21T09:15:34;8.90;99.90
7972;DHT22;4031;49.758;6.120;2023-11-21T09:18:00;9.10;99.90
7972;DHT22;4031;49.758;6.120;2023-11-21T09:20:27;9.20;99.90
7972;DHT22;4031;49.758;6.120;2023-11-21T09:22:53;9.20;99.90
7972;DHT22;4031;49.758;6.120;2023-11-21T09:25:20;9.20;99.90
7972;DHT22;4031;49.758;6.120;2023-11-21T09:27:46;9.20;99.90
7972;DHT22;4031;49.758;6.120;2023-11-21T09:30:12;9.10;99.90
7972;DHT22;4031;49.758;6.120;2023-11-21T09:32:40;9.10;99.90
7972;DHT22;4031;49.758;6.120;2023-11-21T09:35:06;9.10;99.90
7972;DHT22;4031;49.758;6.120;2023-11-21T09:37:35;9.10;99.90
7972;DHT22;4031;49.758;6.120;2023-11-21T09:40:04;9.10;99.90
7972;DHT22;4031;49.758;6.120;2023-11-21T09:42:39;9.20;99.90
7972;DHT22;4031;49.758;6.120;2023-11-21T09:45:11;9.30;99.90
7972;DHT22;4031;49.758;6.120;2023-11-21T09:47:40;9.30;99.90
7972;DHT22;4031;49.758;6.120;2023-11-21T09:50:06;9.40;99.90
7972;DHT22;4031;49.758;6.120;2023-11-21T09:52:49;9.40;99.90
7972;DHT22;4031;49.758;6.120;2023-11-21T09:55:34;9.60;99.90
7972;DHT22;4031;49.758;6.120;2023-11-21T09:58:05;9.90;99.90
7972;DHT22;4031;49.758;6.120;2023-11-21T10:00:33;9.90;99.90
7972;DHT22;4031;49.758;6.120;2023-11-21T10:02:59;9.80;99.90
7972;DHT22;4031;49.758;6.120;2023-11-21T10:05:25;9.80;99.90
7972;DHT22;4031;49.758;6.120;2023-11-21T10:07:52;9.80;99.90
7972;DHT22;4031;49.758;6.120;2023-11-21T10:10:19;9.80;99.90
7972;DHT22;4031;49.758;6.120;2023-11-21T10:12:50;9.80;99.90
7972;DHT22;4031;49.758;6.120;2023-11-21T10:15:21;9.60;99.90
7972;DHT22;4031;49.758;6.120;2023-11-21T10:17:49;9.50;99.90
7972;DHT22;4031;49.758;6.120;2023-11-21T10:20:16;9.50;99.90
7972;DHT22;4031;49.758;6.120;2023-11-21T10:22:42;9.40;99.90
7972;DHT22;4031;49.758;6.120;2023-11-21T10:25:13;9.30;99.90
7972;DHT22;4031;49.758;6.120;2023-11-21T10:27:40;9.40;99.90
7972;DHT22;4031;49.758;6.120;2023-11-21T10:30:07;9.40;99.90
7972;DHT22;4031;49.758;6.120;2023-11-21T10:32:40;9.40;99.90
7972;DHT22;4031;49.758;6.120;2023-11-21T10:35:09;9.50;99.90
7972;DHT22;4031;49.758;6.120;2023-11-21T10:37:42;9.60;99.90
7972;DHT22;4031;49.758;6.120;2023-11-21T10:40:11;9.60;99.90
7972;DHT22;4031;49.758;6.120;2023-11-21T10:42:38;9.60;99.90
7972;DHT22;4031;49.758;6.120;2023-11-21T10:45:05;9.70;99.90
7972;DHT22;4031;49.758;6.120;2023-11-21T10:47:41;9.70;99.90
7972;DHT22;4031;49.758;6.120;2023-11-21T10:50:07;9.80;99.90
7972;DHT22;4031;49.758;6.120;2023-11-21T10:52:37;9.80;99.90
7972;DHT22;4031;49.758;6.120;2023-11-21T10:55:25;9.90;99.90
7972;DHT22;4031;49.758;6.120;2023-11-21T10:57:53;9.90;99.90
7972;DHT22;4031;49.758;6.120;2023-11-21T11:00:20;9.90;99.90
7972;DHT22;4031;49.758;6.120;2023-11-21T11:02:48;10.00;99.90
7972;DHT22;4031;49.758;6.120;2023-11-21T11:05:19;10.10;99.90
7972;DHT22;4031;49.758;6.120;2023-11-21T11:07:48;10.20;99.90
7972;DHT22;4031;49.758;6.120;2023-11-21T11:10:21;10.40;99.90
7972;DHT22;4031;49.758;6.120;2023-11-21T11:12:48;10.50;99.90
7972;DHT22;4031;49.758;6.120;2023-11-21T11:15:16;10.50;99.90
7972;DHT22;4031;49.758;6.120;2023-11-21T11:17:42;10.50;99.90
7972;DHT22;4031;49.758;6.120;2023-11-21T11:20:12;10.50;99.90
7972;DHT22;4031;49.758;6.120;2023-11-21T11:22:50;10.60;99.90
7972;DHT22;4031;49.758;6.120;2023-11-21T11:28:19;10.70;99.90
7972;DHT22;4031;49.758;6.120;2023-11-21T11:37:08;10.90;99.90
7972;DHT22;4031;49.758;6.120;2023-11-21T11:39:42;10.90;99.90
7972;DHT22;4031;49.758;6.120;2023-11-21T11:42:16;10.90;99.90
7972;DHT22;4031;49.758;6.120;2023-11-21T11:55:00;10.80;99.90
7972;DHT22;4031;49.758;6.120;2023-11-21T11:57:30;10.80;99.90
7972;DHT22;4031;49.758;6.120;2023-11-21T12:00:13;10.70;99.90
7972;DHT22;4031;49.758;6.120;2023-11-21T12:02:48;10.60;99.90
7972;DHT22;4031;49.758;6.120;2023-11-21T12:05:16;10.60;99.90
7972;DHT22;4031;49.758;6.120;2023-11-21T12:07:56;10.50;99.90
7972;DHT22;4031;49.758;6.120;2023-11-21T12:10:25;10.50;99.90
7972;DHT22;4031;49.758;6.120;2023-11-21T12:12:54;10.60;99.90
7972;DHT22;4031;49.758;6.120;2023-11-21T12:15:22;10.80;99.90
7972;DHT22;4031;49.758;6.120;2023-11-21T12:17:49;10.90;99.90
7972;DHT22;4031;49.758;6.120;2023-11-21T12:20:20;10.90;99.90
7972;DHT22;4031;49.758;6.120;2023-11-21T12:22:47;11.00;99.90
7972;DHT22;4031;49.758;6.120;2023-11-21T12:25:19;11.00;99.90
7972;DHT22;4031;49.758;6.120;2023-11-21T12:27:51;10.80;99.90
7972;DHT22;4031;49.758;6.120;2023-11-21T12:30:19;10.80;99.90
7972;DHT22;4031;49.758;6.120;2023-11-21T12:32:51;10.90;99.90
7972;DHT22;4031;49.758;6.120;2023-11-21T12:35:19;10.90;99.90
7972;DHT22;4031;49.758;6.120;2023-11-21T12:37:46;11.10;99.90
7972;DHT22;4031;49.758;6.120;2023-11-21T12:40:14;11.30;99.90
7972;DHT22;4031;49.758;6.120;2023-11-21T12:42:42;11.40;99.90
7972;DHT22;4031;49.758;6.120;2023-11-21T12:45:12;11.50;99.90
7972;DHT22;4031;49.758;6.120;2023-11-21T12:47:47;11.60;99.90
7972;DHT22;4031;49.758;6.120;2023-11-21T12:50:15;11.70;99.90
7972;DHT22;4031;49.758;6.120;2023-11-21T12:52:45;11.80;99.90
7972;DHT22;4031;49.758;6.120;2023-11-21T12:55:16;11.80;99.90
7972;DHT22;4031;49.758;6.120;2023-11-21T12:57:47;11.80;99.90
7972;DHT22;4031;49.758;6.120;2023-11-21T13:00:16;11.70;99.90
7972;DHT22;4031;49.758;6.120;2023-11-21T13:02:52;11.70;99.90
7972;DHT22;4031;49.758;6.120;2023-11-21T13:05:28;11.60;99.90
7972;DHT22;4031;49.758;6.120;2023-11-21T13:07:57;11.40;99.90
7972;DHT22;4031;49.758;6.120;2023-11-21T13:10:28;11.20;99.90
7972;DHT22;4031;49.758;6.120;2023-11-21T13:12:58;11.00;99.90
7972;DHT22;4031;49.758;6.120;2023-11-21T13:15:27;10.90;99.90
7972;DHT22;4031;49.758;6.120;2023-11-21T13:17:54;11.00;99.90
7972;DHT22;4031;49.758;6.120;2023-11-21T13:20:23;11.10;99.90
7972;DHT22;4031;49.758;6.120;2023-11-21T13:25:27;11.20;99.90
7972;DHT22;4031;49.758;6.120;2023-11-21T13:27:57;11.30;99.90
7972;DHT22;4031;49.758;6.120;2023-11-21T13:30:24;11.30;99.90
7972;DHT22;4031;49.758;6.120;2023-11-21T13:32:59;11.30;99.90
7972;DHT22;4031;49.758;6.120;2023-11-21T13:35:32;11.30;99.90
7972;DHT22;4031;49.758;6.120;2023-11-21T13:38:05;11.30;99.90
7972;DHT22;4031;49.758;6.120;2023-11-21T13:40:35;11.20;99.90
7972;DHT22;4031;49.758;6.120;2023-11-21T13:43:22;11.10;99.90
7972;DHT22;4031;49.758;6.120;2023-11-21T13:45:51;10.90;99.90
7972;DHT22;4031;49.758;6.120;2023-11-21T13:48:25;10.80;99.90
7972;DHT22;4031;49.758;6.120;2023-11-21T13:50:57;10.90;99.90
7972;DHT22;4031;49.758;6.120;2023-11-21T13:53:36;11.10;99.90
7972;DHT22;4031;49.758;6.120;2023-11-21T13:56:04;11.20;99.90
7972;DHT22;4031;49.758;6.120;2023-11-21T13:58:30;11.40;99.90
7972;DHT22;4031;49.758;6.120;2023-11-21T14:01:12;11.60;99.90
7972;DHT22;4031;49.758;6.120;2023-11-21T14:04:10;11.60;99.90
7972;DHT22;4031;49.758;6.120;2023-11-21T14:06:43;11.30;99.90
7972;DHT22;4031;49.758;6.120;2023-11-21T14:09:17;11.10;99.90
7972;DHT22;4031;49.758;6.120;2023-11-21T14:11:55;11.00;99.90
7972;DHT22;4031;49.758;6.120;2023-11-21T14:14:25;10.90;99.90
7972;DHT22;4031;49.758;6.120;2023-11-21T14:16:52;10.90;99.90
7972;DHT22;4031;49.758;6.120;2023-11-21T14:19:18;11.00;99.90
7972;DHT22;4031;49.758;6.120;2023-11-21T14:21:45;11.10;99.90
7972;DHT22;4031;49.758;6.120;2023-11-21T14:24:14;11.60;99.90
7972;DHT22;4031;49.758;6.120;2023-11-21T14:26:44;12.40;99.90
7972;DHT22;4031;49.758;6.120;2023-11-21T14:29:15;13.30;99.90
7972;DHT22;4031;49.758;6.120;2023-11-21T14:31:45;13.90;99.90
7972;DHT22;4031;49.758;6.120;2023-11-21T14:34:11;14.20;99.90
7972;DHT22;4031;49.758;6.120;2023-11-21T14:36:39;13.80;99.90
7972;DHT22;4031;49.758;6.120;2023-11-21T14:39:05;13.40;99.90
7972;DHT22;4031;49.758;6.120;2023-11-21T14:41:52;12.80;99.90
7972;DHT22;4031;49.758;6.120;2023-11-21T14:44:21;12.30;99.90
7972;DHT22;4031;49.758;6.120;2023-11-21T14:46:51;11.90;99.90
7972;DHT22;4031;49.758;6.120;2023-11-21T14:49:20;11.60;99.90
7972;DHT22;4031;49.758;6.120;2023-11-21T14:51:48;11.20;99.90
7972;DHT22;4031;49.758;6.120;2023-11-21T14:54:29;10.90;99.90
7972;DHT22;4031;49.758;6.120;2023-11-21T14:57:12;10.70;99.90
7972;DHT22;4031;49.758;6.120;2023-11-21T14:59:45;10.50;99.90
7972;DHT22;4031;49.758;6.120;2023-11-21T15:02:20;10.40;99.90
7972;DHT22;4031;49.758;6.120;2023-11-21T15:05:08;10.30;99.90
7972;DHT22;4031;49.758;6.120;2023-11-21T15:07:40;10.20;99.90
7972;DHT22;4031;49.758;6.120;2023-11-21T15:10:07;10.00;99.90
7972;DHT22;4031;49.758;6.120;2023-11-21T15:12:40;10.00;99.90
7972;DHT22;4031;49.758;6.120;2023-11-21T15:15:07;9.90;99.90
7972;DHT22;4031;49.758;6.120;2023-11-21T15:17:36;9.80;99.90
7972;DHT22;4031;49.758;6.120;2023-11-21T15:20:03;9.80;99.90
7972;DHT22;4031;49.758;6.120;2023-11-21T15:22:32;9.80;99.90
7972;DHT22;4031;49.758;6.120;2023-11-21T15:24:57;9.80;99.90
7972;DHT22;4031;49.758;6.120;2023-11-21T15:27:24;9.70;99.90
7972;DHT22;4031;49.758;6.120;2023-11-21T15:29:51;9.70;99.90
7972;DHT22;4031;49.758;6.120;2023-11-21T15:32:17;9.60;99.90
7972;DHT22;4031;49.758;6.120;2023-11-21T15:34:42;9.50;99.90
7972;DHT22;4031;49.758;6.120;2023-11-21T15:37:08;9.40;99.90
7972;DHT22;4031;49.758;6.120;2023-11-21T15:39:36;9.40;99.90
7972;DHT22;4031;49.758;6.120;2023-11-21T15:42:02;9.40;99.90
7972;DHT22;4031;49.758;6.120;2023-11-21T15:44:29;9.20;99.90
7972;DHT22;4031;49.758;6.120;2023-11-21T15:46:57;9.20;99.90
7972;DHT22;4031;49.758;6.120;2023-11-21T15:49:23;9.10;99.90
7972;DHT22;4031;49.758;6.120;2023-11-21T15:51:49;9.00;99.90
7972;DHT22;4031;49.758;6.120;2023-11-21T15:54:25;9.00;99.90
7972;DHT22;4031;49.758;6.120;2023-11-21T15:56:51;8.90;99.90
7972;DHT22;4031;49.758;6.120;2023-11-21T15:59:20;8.80;99.90
7972;DHT22;4031;49.758;6.120;2023-11-21T16:01:49;8.80;99.90
7972;DHT22;4031;49.758;6.120;2023-11-21T16:04:15;8.80;99.90
7972;DHT22;4031;49.758;6.120;2023-11-21T16:06:45;8.70;99.90
7972;DHT22;4031;49.758;6.120;2023-11-21T16:09:12;8.70;99.90
7972;DHT22;4031;49.758;6.120;2023-11-21T16:11:49;8.70;99.90
7972;DHT22;4031;49.758;6.120;2023-11-21T16:14:22;8.70;99.90
7972;DHT22;4031;49.758;6.120;2023-11-21T16:16:52;8.70;99.90
7972;DHT22;4031;49.758;6.120;2023-11-21T16:19:19;8.60;99.90
7972;DHT22;4031;49.758;6.120;2023-11-21T16:21:48;8.60;99.90
7972;DHT22;4031;49.758;6.120;2023-11-21T16:24:14;8.60;99.90
7972;DHT22;4031;49.758;6.120;2023-11-21T16:26:43;8.50;99.90
7972;DHT22;4031;49.758;6.120;2023-11-21T16:29:10;8.50;99.90
7972;DHT22;4031;49.758;6.120;2023-11-21T16:31:38;8.40;99.90
7972;DHT22;4031;49.758;6.120;2023-11-21T16:34:20;8.50;99.90
7972;DHT22;4031;49.758;6.120;2023-11-21T16:36:47;8.40;99.90
7972;DHT22;4031;49.758;6.120;2023-11-21T16:39:16;8.40;99.90
7972;DHT22;4031;49.758;6.120;2023-11-21T16:41:45;8.50;99.90